CheckWX is a tool to help pilots better visualize weather data.  It is not intended as a substitute for an official pre-flight weather briefing.

04:58:36 UTC

KBBG TAF
Branson Airport
Branson, Missouri, USA
KBBG 172340Z 1800/1824 VRB05KT P6SM VCSH BKN060 TEMPO 1800/1804 -SHRA SCT003 BKN025 FM180400 00000KT P6SM SCT060 FM180900 00000KT P6SM BKN017 FM181100 00000KT 5SM BR BKN007 FM181400 00000KT P6SM BKN013 FM181600 00000KT P6SM SCT017

Jun-18@
00:00 UTC

Jun-18 @ 00:00 UTC

Jun-18@
04:00 UTC

Jun-18 @ 04:00 UTC

KBBG 172340Z 1800/1824 VRB05KT P6SM VCSH BKN060

Expired

Wind
  • Variable at 5 KTS
Cloud Levels
  • Broken at 6,000' AGL

Jun-18@
00:00 UTC

Jun-18 @ 00:00 UTC

Jun-18@
04:00 UTC

Jun-18 @ 04:00 UTC

TEMPO 1800/1804 -SHRA SCT003 BKN025

Expired

Conditions
Light Rain
Cloud Levels
  • Scattered at 300' AGL
  • Broken at 2,500' AGL

Jun-18@
04:00 UTC

Jun-18 @ 04:00 UTC

Jun-18@
09:00 UTC

Jun-18 @ 09:00 UTC

FM180400 00000KT P6SM SCT060

From

From Standard forecast or significant change

Cloud Levels
  • Scattered at 6,000' AGL

Jun-18@
09:00 UTC

Jun-18 @ 09:00 UTC

Jun-18@
11:00 UTC

Jun-18 @ 11:00 UTC

FM180900 00000KT P6SM BKN017

From

From Standard forecast or significant change

Cloud Levels
  • Broken at 1,700' AGL

Jun-18@
11:00 UTC

Jun-18 @ 11:00 UTC

Jun-18@
14:00 UTC

Jun-18 @ 14:00 UTC

FM181100 00000KT 5SM BR BKN007

From

From Standard forecast or significant change

Conditions
Mist
Cloud Levels
  • Broken at 700' AGL

Jun-18@
14:00 UTC

Jun-18 @ 14:00 UTC

Jun-18@
16:00 UTC

Jun-18 @ 16:00 UTC

FM181400 00000KT P6SM BKN013

From

From Standard forecast or significant change

Cloud Levels
  • Broken at 1,300' AGL

Jun-18@
16:00 UTC

Jun-18 @ 16:00 UTC

Jun-19@
00:00 UTC

Jun-19 @ 00:00 UTC

FM181600 00000KT P6SM SCT017

From

From Standard forecast or significant change

Cloud Levels
  • Scattered at 1,700' AGL